Mililani, Hawaii
Current Conditions -  °F | °C
As of 12:58 PM on Saturday 25 Oct 2014 (Local Time) from PHHI Reporting Station
Few Clouds Few Clouds  
Wind Chill: 81°   Ceiling: Unl
Heat Index: 84°   Visibility: 10mi
Dew Point: 69°   Wind: 10mph
Humidity: 67%   Direction: 110°ESE
Pressure: 30.01"   Gusts: 18mph
Location:  21.45°N, 158.02°W
Report Text: PHHI 252258Z AUTO 11009G16KT 10SM FEW027 27/21 A3001 RMK AO2 SLP151 T02730207 $
Loading
Personal Weather Stations






























Interactive Weather Map
Tropical Storm Tracking
New forecast layout! Learn more

10-Day Weather Forecast

Advertisements
Track Severe Weather on mobile